Time;durP1;ratioP1;P1;durP2;ratioP2;P2;SDS_P1;SDS_P2;PMS_P1;PMS_P2;Temp;Humidity;BMP_temperature;BMP_pressure;BME280_temperature;BME280_humidity;BME280_pressure;Samples;Min_cycle;Max_cycle;Signal;HPM_P1;HPM_P2
2022/09/14 00:01:59;;;;;;;;;;;;;;;;;;5070181;28;46755;-81
2022/09/14 00:04:25;;;;;;;;;;;;;;;;;;5054703;28;46242;-81
2022/09/14 00:06:52;;;;;;;;;;;;;;;;;;5054737;28;44950;-81
2022/09/14 00:09:18;;;;;;;;;;;;;;;;;;5072938;28;45559;-81
2022/09/14 00:11:44;;;;;;;;;;;;;;;;;;5070049;28;48919;-79
2022/09/14 00:14:10;;;;;;;;;;;;;;;;;;5073108;28;42798;-81
2022/09/14 00:16:36;;;;;;;;;;;;;;;;;;5054037;28;45692;-80
2022/09/14 00:19:04;;;;;;;;;;;;;;;;;;5073928;28;43279;-80
2022/09/14 00:21:31;;;;;;;;;;;;;;;;;;5073434;28;45221;-81
2022/09/14 00:23:57;;;;;;;;;;;;;;;;;;5052811;28;47548;-80
2022/09/14 00:26:24;;;;;;;;;;;;;;;;;;5054855;28;45135;-80
2022/09/14 00:28:50;;;;;;;;;;;;;;;;;;5071957;28;46414;-82
2022/09/14 00:31:16;;;;;;;;;;;;;;;;;;5072333;28;46707;-83
2022/09/14 00:33:43;;;;;;;;;;;;;;;;;;5054886;28;40775;-80
2022/09/14 00:36:09;;;;;;;;;;;;;;;;;;5066420;28;46408;-81
2022/09/14 00:38:35;;;;;;;;;;;;;;;;;;5054435;28;43791;-80
2022/09/14 00:41:01;;;;;;;;;;;;;;;;;;5052739;28;46144;-80
2022/09/14 00:43:28;;;;;;;;;;;;;;;;;;5069940;28;47299;-80
2022/09/14 00:45:54;;;;;;;;;;;;;;;;;;5069655;28;42257;-80
2022/09/14 00:48:20;;;;;;;;;;;;;;;;;;5035713;28;47861;-80
2022/09/14 00:50:46;;;;;;;;;;;;;;;;;;5042859;28;47314;-80
2022/09/14 00:53:12;;;;;;;;;;;;;;;;;;5055174;28;45171;-80
2022/09/14 00:55:39;;;;;;;;;;;;;;;;;;5055253;28;44159;-80
2022/09/14 00:58:05;;;;;;;;;;;;;;;;;;5054707;28;47281;-80
2022/09/14 01:00:31;;;;;;;;;;;;;;;;;;5065730;28;46537;-80
2022/09/14 01:02:57;;;;;;;;;;;;;;;;;;5047563;28;48089;-80
2022/09/14 01:05:24;;;;;;;;;;;;;;;;;;5054180;28;44676;-80
2022/09/14 01:07:50;;;;;;;;;;;;;;;;;;5050230;28;45528;-81
2022/09/14 01:10:17;;;;;;;;;;;;;;;;;;5070588;28;46737;-81
2022/09/14 01:12:43;;;;;;;;;;;;;;;;;;5071677;28;41140;-80
2022/09/14 01:15:09;;;;;;;;;;;;;;;;;;5049679;28;46667;-81
2022/09/14 01:17:35;;;;;;;;;;;;;;;;;;5068513;28;47177;-81
2022/09/14 01:20:03;;;;;;;;;;;;;;;;;;5073256;28;44711;-81
2022/09/14 01:22:31;;;;;;;;;;;;;;;;;;5072122;28;46984;-81
2022/09/14 01:24:57;;;;;;;;;;;;;;;;;;5071189;28;44032;-82
2022/09/14 01:27:23;;;;;;;;;;;;;;;;;;5050864;28;48386;-82
2022/09/14 01:29:49;;;;;;;;;;;;;;;;;;5069449;28;47506;-81
2022/09/14 01:32:16;;;;;;;;;;;;;;;;;;5061027;28;42796;-83
2022/09/14 01:34:42;;;;;;;;;;;;;;;;;;5052675;28;47821;-81
2022/09/14 01:37:11;;;;;;;;;;;;;;;;;;5071870;28;47277;-80
2022/09/14 01:39:38;;;;;;;;;;;;;;;;;;5052192;28;43714;-80
2022/09/14 01:42:04;;;;;;;;;;;;;;;;;;5070281;28;47079;-80
2022/09/14 01:44:30;;;;;;;;;;;;;;;;;;5065472;28;43731;-81
2022/09/14 01:46:56;;;;;;;;;;;;;;;;;;5070518;28;46600;-81
2022/09/14 01:52:50;;;;;;;;;;;;;;;;;;5068560;28;19920;-80
2022/09/14 02:07:57;;;;;;;;;;;;;;;;;;5064725;28;20796;-81
2022/09/14 02:10:23;;;;;;;;;;;;;;;;;;5049772;28;44847;-80
2022/09/14 02:12:49;;;;;;;;;;;;;;;;;;5051503;28;47599;-80
2022/09/14 02:15:16;;;;;;;;;;;;;;;;;;5051566;28;44976;-82
2022/09/14 02:17:42;;;;;;;;;;;;;;;;;;5071390;28;44811;-82
2022/09/14 02:20:09;;;;;;;;;;;;;;;;;;5069414;28;48399;-81
2022/09/14 02:22:35;;;;;;;;;;;;;;;;;;5060704;28;43877;-80
2022/09/14 02:25:02;;;;;;;;;;;;;;;;;;5029898;28;48395;-78
2022/09/14 02:27:28;;;;;;;;;;;;;;;;;;5066680;28;45026;-79
2022/09/14 02:29:54;;;;;;;;;;;;;;;;;;5066862;28;46739;-79
2022/09/14 02:32:20;;;;;;;;;;;;;;;;;;5067368;28;48699;-80
2022/09/14 02:34:47;;;;;;;;;;;;;;;;;;5050003;28;44198;-81
2022/09/14 02:37:13;;;;;;;;;;;;;;;;;;5049615;28;46689;-82
2022/09/14 02:39:39;;;;;;;;;;;;;;;;;;5067457;28;46701;-81
2022/09/14 02:42:05;;;;;;;;;;;;;;;;;;5064537;28;45268;-80
2022/09/14 02:44:31;;;;;;;;;;;;;;;;;;5066832;28;46337;-80
2022/09/14 02:46:58;;;;;;;;;;;;;;;;;;5049801;28;48275;-80
2022/09/14 02:49:24;;;;;;;;;;;;;;;;;;5050208;28;41821;-80
2022/09/14 02:51:50;;;;;;;;;;;;;;;;;;5049843;28;46647;-79
2022/09/14 02:54:16;;;;;;;;;;;;;;;;;;5055385;28;44573;-80
2022/09/14 02:56:43;;;;;;;;;;;;;;;;;;5057638;28;46806;-79
2022/09/14 02:59:09;;;;;;;;;;;;;;;;;;5036405;28;47296;-80
2022/09/14 03:01:36;;;;;;;;;;;;;;;;;;5049007;28;43404;-81
2022/09/14 03:04:02;;;;;;;;;;;;;;;;;;5048714;28;46462;-80
2022/09/14 03:06:28;;;;;;;;;;;;;;;;;;5066329;28;48649;-80
2022/09/14 03:08:54;;;;;;;;;;;;;;;;;;5069453;28;44995;-81
2022/09/14 03:11:21;;;;;;;;;;;;;;;;;;5052858;28;47731;-81
2022/09/14 03:13:47;;;;;;;;;;;;;;;;;;5048740;28;44781;-81
2022/09/14 03:16:13;;;;;;;;;;;;;;;;;;5067405;28;46763;-80
2022/09/14 03:18:39;;;;;;;;;;;;;;;;;;5049572;28;46850;-80
2022/09/14 03:21:06;;;;;;;;;;;;;;;;;;5067084;28;42602;-80
2022/09/14 03:23:32;;;;;;;;;;;;;;;;;;5065553;28;46721;-80
2022/09/14 03:25:58;;;;;;;;;;;;;;;;;;5046058;28;47635;-79
2022/09/14 03:28:25;;;;;;;;;;;;;;;;;;5065352;28;45187;-79
2022/09/14 03:30:51;;;;;;;;;;;;;;;;;;5048572;28;46276;-81
2022/09/14 03:33:18;;;;;;;;;;;;;;;;;;5050354;28;32512;-80
2022/09/14 03:35:44;;;;;;;;;;;;;;;;;;5047319;28;46595;-80
2022/09/14 03:38:10;;;;;;;;;;;;;;;;;;5067249;28;47364;-81
2022/09/14 03:40:36;;;;;;;;;;;;;;;;;;5067511;28;43690;-81
2022/09/14 03:43:02;;;;;;;;;;;;;;;;;;5068007;28;46282;-80
2022/09/14 03:45:28;;;;;;;;;;;;;;;;;;5067917;28;47317;-81
2022/09/14 03:47:55;;;;;;;;;;;;;;;;;;5052472;28;42456;-84
2022/09/14 03:50:21;;;;;;;;;;;;;;;;;;5051772;28;45395;-83
2022/09/14 03:52:47;;;;;;;;;;;;;;;;;;5053550;28;47262;-82
2022/09/14 03:55:13;;;;;;;;;;;;;;;;;;5070910;28;44985;-83
2022/09/14 03:57:39;;;;;;;;;;;;;;;;;;5069503;28;47526;-82
2022/09/14 04:00:06;;;;;;;;;;;;;;;;;;5053084;28;44361;-83
2022/09/14 04:02:32;;;;;;;;;;;;;;;;;;5048491;28;46457;-83
2022/09/14 04:04:58;;;;;;;;;;;;;;;;;;5041225;28;46809;-83
2022/09/14 04:07:24;;;;;;;;;;;;;;;;;;5032371;28;44999;-83
2022/09/14 04:09:50;;;;;;;;;;;;;;;;;;5049248;28;46358;-83
2022/09/14 04:12:17;;;;;;;;;;;;;;;;;;5050999;28;45893;-83
2022/09/14 04:14:43;;;;;;;;;;;;;;;;;;5069140;28;44052;-83
2022/09/14 04:17:09;;;;;;;;;;;;;;;;;;5049155;28;47094;-84
2022/09/14 04:19:38;;;;;;;;;;;;;;;;;;5051792;28;42251;-83
2022/09/14 04:22:04;;;;;;;;;;;;;;;;;;5069408;28;46795;-83
2022/09/14 04:24:30;;;;;;;;;;;;;;;;;;5051238;28;47277;-83
2022/09/14 04:26:56;;;;;;;;;;;;;;;;;;5069583;28;43786;-84
2022/09/14 04:29:22;;;;;;;;;;;;;;;;;;5050210;28;46315;-84
2022/09/14 04:31:49;;;;;;;;;;;;;;;;;;5048566;28;47200;-86
2022/09/14 04:34:15;;;;;;;;;;;;;;;;;;5051300;28;43051;-86
2022/09/14 04:36:41;;;;;;;;;;;;;;;;;;5050310;28;44835;-86
2022/09/14 04:39:08;;;;;;;;;;;;;;;;;;5050347;28;42818;-87
2022/09/14 04:41:34;;;;;;;;;;;;;;;;;;5051049;28;46778;-84
2022/09/14 04:44:00;;;;;;;;;;;;;;;;;;5066970;28;47424;-83
2022/09/14 04:46:26;;;;;;;;;;;;;;;;;;5064628;28;44269;-84
2022/09/14 04:48:52;;;;;;;;;;;;;;;;;;5059706;28;44954;-84
2022/09/14 04:51:19;;;;;;;;;;;;;;;;;;5056167;28;48811;-83
2022/09/14 04:53:45;;;;;;;;;;;;;;;;;;5053993;28;43844;-84
2022/09/14 04:56:13;;;;;;;;;;;;;;;;;;5055243;28;46308;-83
2022/09/14 04:58:40;;;;;;;;;;;;;;;;;;5069613;28;45761;-83
2022/09/14 05:01:07;;;;;;;;;;;;;;;;;;5072746;28;46544;-84
2022/09/14 05:03:33;;;;;;;;;;;;;;;;;;5054533;28;45653;-83
2022/09/14 05:05:59;;;;;;;;;;;;;;;;;;5053856;28;44098;-83
2022/09/14 05:08:25;;;;;;;;;;;;;;;;;;5071374;28;46281;-83
2022/09/14 05:10:51;;;;;;;;;;;;;;;;;;5044468;28;48878;-82
2022/09/14 05:13:18;;;;;;;;;;;;;;;;;;5061403;28;44019;-82
2022/09/14 05:15:44;;;;;;;;;;;;;;;;;;5071413;28;47845;-84
2022/09/14 05:18:10;;;;;;;;;;;;;;;;;;5053949;28;44512;-84
2022/09/14 05:20:36;;;;;;;;;;;;;;;;;;5073581;28;43939;-83
2022/09/14 05:23:04;;;;;;;;;;;;;;;;;;5070909;28;46862;-83
2022/09/14 05:25:30;;;;;;;;;;;;;;;;;;5060268;28;43931;-83
2022/09/14 05:27:56;;;;;;;;;;;;;;;;;;5076589;28;44748;-83
2022/09/14 05:30:23;;;;;;;;;;;;;;;;;;5059224;28;46954;-85
2022/09/14 05:32:49;;;;;;;;;;;;;;;;;;5052987;28;41182;-86
2022/09/14 05:35:15;;;;;;;;;;;;;;;;;;5056182;28;46742;-85
2022/09/14 05:37:41;;;;;;;;;;;;;;;;;;5055398;28;47289;-85
2022/09/14 05:40:07;;;;;;;;;;;;;;;;;;5072894;28;44041;-84
2022/09/14 05:42:34;;;;;;;;;;;;;;;;;;5074153;28;48311;-83
2022/09/14 05:45:00;;;;;;;;;;;;;;;;;;5074693;28;46293;-84
2022/09/14 05:47:26;;;;;;;;;;;;;;;;;;5058395;28;47895;-81
2022/09/14 05:49:54;;;;;;;;;;;;;;;;;;5064115;28;45843;-80
2022/09/14 05:52:20;;;;;;;;;;;;;;;;;;5073261;28;42263;-81
2022/09/14 05:54:46;;;;;;;;;;;;;;;;;;5070511;28;43968;-81
2022/09/14 05:57:13;;;;;;;;;;;;;;;;;;5069795;28;45991;-81
2022/09/14 05:59:39;;;;;;;;;;;;;;;;;;5070618;28;46362;-81
2022/09/14 06:02:05;;;;;;;;;;;;;;;;;;5068610;28;46767;-81
2022/09/14 06:04:31;;;;;;;;;;;;;;;;;;5070674;28;43885;-80
2022/09/14 06:06:57;;;;;;;;;;;;;;;;;;5070750;28;46101;-81
2022/09/14 06:09:42;;;;;;;;;;;;;;;;;;5068463;28;45986;-81
2022/09/14 06:12:13;;;;;;;;;;;;;;;;;;5057197;28;43751;-80
2022/09/14 06:14:39;;;;;;;;;;;;;;;;;;5065202;28;44994;-81
2022/09/14 06:17:05;;;;;;;;;;;;;;;;;;5076111;28;45973;-81
2022/09/14 06:19:32;;;;;;;;;;;;;;;;;;5080273;28;42136;-79
2022/09/14 06:21:58;;;;;;;;;;;;;;;;;;5083218;28;46333;-80
2022/09/14 06:24:24;;;;;;;;;;;;;;;;;;5068466;28;44764;-81
2022/09/14 06:26:51;;;;;;;;;;;;;;;;;;5064356;28;44629;-82
2022/09/14 06:29:17;;;;;;;;;;;;;;;;;;5065369;28;46239;-82
2022/09/14 06:31:43;;;;;;;;;;;;;;;;;;5058838;28;43891;-79
2022/09/14 06:34:09;;;;;;;;;;;;;;;;;;5079814;28;45052;-79
2022/09/14 06:36:36;;;;;;;;;;;;;;;;;;5057351;28;44423;-79
2022/09/14 06:39:02;;;;;;;;;;;;;;;;;;5056611;28;44447;-80
2022/09/14 06:41:29;;;;;;;;;;;;;;;;;;5080419;28;44893;-81
2022/09/14 06:43:55;;;;;;;;;;;;;;;;;;5063212;28;46635;-80
2022/09/14 06:46:22;;;;;;;;;;;;;;;;;;5083343;28;42531;-81
2022/09/14 06:48:48;;;;;;;;;;;;;;;;;;5057004;28;46040;-79
2022/09/14 06:51:14;;;;;;;;;;;;;;;;;;5063990;28;42167;-80
2022/09/14 06:53:41;;;;;;;;;;;;;;;;;;5077425;28;46345;-80
2022/09/14 06:56:07;;;;;;;;;;;;;;;;;;5062194;28;46991;-80
2022/09/14 06:58:33;;;;;;;;;;;;;;;;;;5060723;28;42679;-81
2022/09/14 07:00:59;;;;;;;;;;;;;;;;;;5056646;28;44776;-80
2022/09/14 07:03:25;;;;;;;;;;;;;;;;;;5048580;28;44678;-80
2022/09/14 07:05:52;;;;;;;;;;;;;;;;;;5063896;28;42535;-80
2022/09/14 07:08:36;;;;;;;;;;;;;;;;;;5060924;28;47788;-81
2022/09/14 07:11:47;;;;;;;;;;;;;;;;;;;;;
2022/09/14 07:26:38;;;;;;;;;;;;;;;;;;5033386;28;19913;-83
2022/09/14 07:29:05;;;;;;;;;;;;;;;;;;5027983;28;42343;-84
2022/09/14 07:31:31;;;;;;;;;;;;;;;;;;5021118;28;46038;-83
2022/09/14 07:33:57;;;;;;;;;;;;;;;;;;5026826;28;48099;-85
2022/09/14 07:36:24;;;;;;;;;;;;;;;;;;5031100;28;44685;-84
2022/09/14 07:38:50;;;;;;;;;;;;;;;;;;5020763;28;48432;-82
2022/09/14 07:41:19;;;;;;;;;;;;;;;;;;5017751;28;42481;-81
2022/09/14 07:43:45;;;;;;;;;;;;;;;;;;5042247;28;44374;-81
2022/09/14 07:46:11;;;;;;;;;;;;;;;;;;5024594;28;45171;-81
2022/09/14 07:48:37;;;;;;;;;;;;;;;;;;5035301;28;42818;-81
2022/09/14 07:51:03;;;;;;;;;;;;;;;;;;5040315;28;45014;-81
2022/09/14 07:53:30;;;;;;;;;;;;;;;;;;5044821;28;46487;-81
2022/09/14 07:55:56;;;;;;;;;;;;;;;;;;5084463;28;47464;-81
2022/09/14 07:58:22;;;;;;;;;;;;;;;;;;5062490;28;46941;-81
2022/09/14 08:00:48;;;;;;;;;;;;;;;;;;5064437;28;44071;-81
2022/09/14 08:03:15;;;;;;;;;;;;;;;;;;5048828;28;46519;-81
2022/09/14 08:05:41;;;;;;;;;;;;;;;;;;5063492;28;45872;-81
2022/09/14 08:08:07;;;;;;;;;;;;;;;;;;5062947;28;45062;-81
2022/09/14 08:10:33;;;;;;;;;;;;;;;;;;5076893;28;46635;-81
2022/09/14 08:13:00;;;;;;;;;;;;;;;;;;5046629;28;47306;-81
2022/09/14 08:15:27;;;;;;;;;;;;;;;;;;5070516;28;43394;-81
2022/09/14 08:17:54;;;;;;;;;;;;;;;;;;5057174;28;46910;-80
2022/09/14 08:20:21;;;;;;;;;;;;;;;;;;5057298;28;44568;-80
2022/09/14 08:22:47;;;;;;;;;;;;;;;;;;5053749;28;46802;-80
2022/09/14 08:25:13;;;;;;;;;;;;;;;;;;5077343;28;46898;-80
2022/09/14 08:27:39;;;;;;;;;;;;;;;;;;5059604;28;45177;-80
2022/09/14 08:30:05;;;;;;;;;;;;;;;;;;5055646;28;45179;-79
2022/09/14 08:32:33;;;;;;;;;;;;;;;;;;5067197;28;46000;-81
2022/09/14 08:34:59;;;;;;;;;;;;;;;;;;5086947;28;43661;-79
2022/09/14 08:37:25;;;;;;;;;;;;;;;;;;5060975;28;46072;-79
2022/09/14 08:39:52;;;;;;;;;;;;;;;;;;5050518;28;44039;-77
2022/09/14 08:42:24;;;;;;;;;;;;;;;;;;5041641;28;45692;-77
2022/09/14 08:44:51;;;;;;;;;;;;;;;;;;5050385;28;45955;-79
2022/09/14 08:47:18;;;;;;;;;;;;;;;;;;5051986;28;45354;-81
2022/09/14 08:49:44;;;;;;;;;;;;;;;;;;5052744;28;45684;-84
2022/09/14 08:52:11;;;;;;;;;;;;;;;;;;5049835;28;46824;-82
2022/09/14 08:54:38;;;;;;;;;;;;;;;;;;5052301;28;45125;-80
2022/09/14 08:57:04;;;;;;;;;;;;;;;;;;5053151;28;47172;-79
2022/09/14 08:59:30;;;;;;;;;;;;;;;;;;5053905;28;50054;-80
2022/09/14 09:01:56;;;;;;;;;;;;;;;;;;5053801;28;45058;-76
2022/09/14 09:04:23;;;;;;;;;;;;;;;;;;5064953;28;44682;-77
2022/09/14 09:06:49;;;;;;;;;;;;;;;;;;5045014;28;43890;-77
2022/09/14 09:09:15;;;;;;;;;;;;;;;;;;5050307;28;44783;-77
2022/09/14 09:11:41;;;;;;;;;;;;;;;;;;5054078;28;46035;-77
2022/09/14 09:14:07;;;;;;;;;;;;;;;;;;5060953;28;42634;-76
2022/09/14 09:16:34;;;;;;;;;;;;;;;;;;5067820;28;46142;-77
2022/09/14 09:19:00;;;;;;;;;;;;;;;;;;5050061;28;48280;-77
2022/09/14 09:21:26;;;;;;;;;;;;;;;;;;5058760;28;43429;-77
2022/09/14 09:23:52;;;;;;;;;;;;;;;;;;5048331;28;46874;-78
2022/09/14 09:26:18;;;;;;;;;;;;;;;;;;5068129;28;43932;-77
2022/09/14 09:28:45;;;;;;;;;;;;;;;;;;5062603;28;45664;-77
2022/09/14 09:31:11;;;;;;;;;;;;;;;;;;5053131;28;46982;-78
2022/09/14 09:33:39;;;;;;;;;;;;;;;;;;5050340;28;43822;-76
2022/09/14 09:36:07;;;;;;;;;;;;;;;;;;5066585;28;49081;-77
2022/09/14 09:38:33;;;;;;;;;;;;;;;;;;5059528;28;45792;-77
2022/09/14 09:40:59;;;;;;;;;;;;;;;;;;5050584;28;44037;-78
2022/09/14 09:43:26;;;;;;;;;;;;;;;;;;5054473;28;43721;-78
2022/09/14 09:46:12;;;;;;;;;;;;;;;;;;5049134;28;19929;-78
2022/09/14 09:48:38;;;;;;;;;;;;;;;;;;5053017;28;44940;-78
2022/09/14 09:51:04;;;;;;;;;;;;;;;;;;5046486;28;46906;-78
2022/09/14 09:53:31;;;;;;;;;;;;;;;;;;5052260;28;44280;-77
2022/09/14 09:55:57;;;;;;;;;;;;;;;;;;5051631;28;46647;-78
2022/09/14 09:58:23;;;;;;;;;;;;;;;;;;5070162;28;47300;-78
2022/09/14 10:00:50;;;;;;;;;;;;;;;;;;5068754;28;45033;-78
2022/09/14 10:03:16;;;;;;;;;;;;;;;;;;5046666;28;43481;-76
2022/09/14 10:05:43;;;;;;;;;;;;;;;;;;5066993;28;43921;-75
2022/09/14 10:08:10;;;;;;;;;;;;;;;;;;5065853;28;45701;-76
2022/09/14 10:10:41;;;;;;;;;;;;;;;;;;5057836;28;47213;-77
2022/09/14 10:13:08;;;;;;;;;;;;;;;;;;5047292;28;44835;-77
2022/09/14 10:15:35;;;;;;;;;;;;;;;;;;5067709;28;46650;-77
2022/09/14 10:18:01;;;;;;;;;;;;;;;;;;5065527;28;47844;-77
2022/09/14 10:20:27;;;;;;;;;;;;;;;;;;5039928;28;42485;-76
2022/09/14 10:22:54;;;;;;;;;;;;;;;;;;5067028;28;44838;-77
2022/09/14 10:25:21;;;;;;;;;;;;;;;;;;5044579;28;47334;-77
2022/09/14 10:27:51;;;;;;;;;;;;;;;;;;5067297;28;45374;-77
2022/09/14 10:30:18;;;;;;;;;;;;;;;;;;5051204;28;46654;-77
2022/09/14 10:32:44;;;;;;;;;;;;;;;;;;5069020;28;44989;-77
2022/09/14 10:35:10;;;;;;;;;;;;;;;;;;5046595;28;45215;-77
2022/09/14 10:37:36;;;;;;;;;;;;;;;;;;5045999;28;48333;-77
2022/09/14 10:40:03;;;;;;;;;;;;;;;;;;5043964;28;42912;-77
2022/09/14 10:42:29;;;;;;;;;;;;;;;;;;5040201;28;45144;-77
2022/09/14 10:44:55;;;;;;;;;;;;;;;;;;5059734;28;47533;-77
2022/09/14 10:47:21;;;;;;;;;;;;;;;;;;5041856;28;42856;-77
2022/09/14 10:49:48;;;;;;;;;;;;;;;;;;5046313;28;47196;-77
2022/09/14 10:52:14;;;;;;;;;;;;;;;;;;5046681;28;44059;-78
2022/09/14 10:54:40;;;;;;;;;;;;;;;;;;5043318;28;46948;-78
2022/09/14 10:57:06;;;;;;;;;;;;;;;;;;5048327;28;45578;-78
2022/09/14 10:59:33;;;;;;;;;;;;;;;;;;5039871;28;45077;-77
2022/09/14 11:02:01;;;;;;;;;;;;;;;;;;5062284;28;46439;-77
2022/09/14 11:04:27;;;;;;;;;;;;;;;;;;5040707;28;44858;-77
2022/09/14 11:06:53;;;;;;;;;;;;;;;;;;5043621;28;45055;-77
2022/09/14 11:09:20;;;;;;;;;;;;;;;;;;5040169;28;47206;-77
2022/09/14 11:11:46;;;;;;;;;;;;;;;;;;5055988;28;43945;-78
2022/09/14 11:14:12;;;;;;;;;;;;;;;;;;5060817;28;45706;-78
2022/09/14 11:16:38;;;;;;;;;;;;;;;;;;5059032;28;45989;-78
2022/09/14 11:19:04;;;;;;;;;;;;;;;;;;5041814;28;43922;-78
2022/09/14 11:21:31;;;;;;;;;;;;;;;;;;5065162;28;46298;-78
2022/09/14 11:23:57;;;;;;;;;;;;;;;;;;5049708;28;46938;-77
2022/09/14 11:26:23;;;;;;;;;;;;;;;;;;5039268;28;42292;-78
2022/09/14 11:28:49;;;;;;;;;;;;;;;;;;5064518;28;46757;-78
2022/09/14 11:31:15;;;;;;;;;;;;;;;;;;5061615;28;47175;-78
2022/09/14 11:33:42;;;;;;;;;;;;;;;;;;5046665;28;47584;-78
2022/09/14 11:36:08;;;;;;;;;;;;;;;;;;5056653;28;47198;-78
2022/09/14 11:38:34;;;;;;;;;;;;;;;;;;5063135;28;44263;-77
2022/09/14 11:41:00;;;;;;;;;;;;;;;;;;5048082;28;44827;-77
2022/09/14 11:43:27;;;;;;;;;;;;;;;;;;5059350;28;47207;-77
2022/09/14 11:45:55;;;;;;;;;;;;;;;;;;5042406;28;45043;-78
2022/09/14 11:48:21;;;;;;;;;;;;;;;;;;5041740;28;46346;-77
2022/09/14 11:51:07;;;;;;;;;;;;;;;;;;5046468;28;48051;-78
2022/09/14 11:53:34;;;;;;;;;;;;;;;;;;5067231;28;42945;-78
2022/09/14 11:56:00;;;;;;;;;;;;;;;;;;5064276;28;46139;-78
2022/09/14 11:58:30;;;;;;;;;;;;;;;;;;5043526;28;45115;-77
2022/09/14 12:00:56;;;;;;;;;;;;;;;;;;5051078;28;45004;-77
2022/09/14 12:03:23;;;;;;;;;;;;;;;;;;5044888;28;47198;-77
2022/09/14 12:05:49;;;;;;;;;;;;;;;;;;5066479;28;44268;-76
2022/09/14 12:08:15;;;;;;;;;;;;;;;;;;5063274;28;45293;-77
2022/09/14 12:10:41;;;;;;;;;;;;;;;;;;5065153;28;48575;-77
2022/09/14 12:13:11;;;;;;;;;;;;;;;;;;5052286;28;43825;-78
2022/09/14 12:15:39;;;;;;;;;;;;;;;;;;5046991;28;46919;-78
2022/09/14 12:18:06;;;;;;;;;;;;;;;;;;5051067;28;44761;-77
2022/09/14 12:20:32;;;;;;;;;;;;;;;;;;5063060;28;47829;-77
2022/09/14 12:22:58;;;;;;;;;;;;;;;;;;5039957;28;48303;-78
2022/09/14 12:25:24;;;;;;;;;;;;;;;;;;5047562;28;44016;-76
2022/09/14 12:27:50;;;;;;;;;;;;;;;;;;5051904;28;48005;-76
2022/09/14 12:30:17;;;;;;;;;;;;;;;;;;5051340;28;47311;-76
2022/09/14 12:32:43;;;;;;;;;;;;;;;;;;5044325;28;43206;-75
2022/09/14 12:35:09;;;;;;;;;;;;;;;;;;5055624;28;46766;-77
2022/09/14 12:37:35;;;;;;;;;;;;;;;;;;5045858;28;42864;-78
2022/09/14 12:40:02;;;;;;;;;;;;;;;;;;5043514;28;45394;-78
2022/09/14 12:42:28;;;;;;;;;;;;;;;;;;5041975;28;46901;-78
2022/09/14 12:44:54;;;;;;;;;;;;;;;;;;5044703;28;44823;-78
2022/09/14 12:47:21;;;;;;;;;;;;;;;;;;5043530;28;45920;-78
2022/09/14 12:49:47;;;;;;;;;;;;;;;;;;5065217;28;47262;-78
2022/09/14 12:52:16;;;;;;;;;;;;;;;;;;5045316;28;45185;-80
2022/09/14 12:54:42;;;;;;;;;;;;;;;;;;5052766;28;43216;-78
2022/09/14 12:57:12;;;;;;;;;;;;;;;;;;5051690;28;47268;-78
2022/09/14 12:59:38;;;;;;;;;;;;;;;;;;5071179;28;45037;-78
2022/09/14 13:02:04;;;;;;;;;;;;;;;;;;5053065;28;45963;-79
2022/09/14 13:04:30;;;;;;;;;;;;;;;;;;5073635;28;43318;-78
2022/09/14 13:06:57;;;;;;;;;;;;;;;;;;5075621;28;47461;-80
2022/09/14 13:09:23;;;;;;;;;;;;;;;;;;5077270;28;45784;-81
2022/09/14 13:11:49;;;;;;;;;;;;;;;;;;5052151;28;43777;-80
2022/09/14 13:14:15;;;;;;;;;;;;;;;;;;5056269;28;44888;-78
2022/09/14 13:16:42;;;;;;;;;;;;;;;;;;5063916;28;46872;-82
2022/09/14 13:19:08;;;;;;;;;;;;;;;;;;5066600;28;44042;-83
2022/09/14 13:21:38;;;;;;;;;;;;;;;;;;5049547;28;47842;-84
2022/09/14 13:24:04;;;;;;;;;;;;;;;;;;5066446;28;44431;-78
2022/09/14 13:26:32;;;;;;;;;;;;;;;;;;5053755;28;46419;-77
2022/09/14 13:28:58;;;;;;;;;;;;;;;;;;5039767;28;46361;-77
2022/09/14 13:31:24;;;;;;;;;;;;;;;;;;5059984;28;45318;-77
2022/09/14 13:33:50;;;;;;;;;;;;;;;;;;5049247;28;45786;-77
2022/09/14 13:36:17;;;;;;;;;;;;;;;;;;5063199;28;47227;-77
2022/09/14 13:38:43;;;;;;;;;;;;;;;;;;5070191;28;45197;-77
2022/09/14 13:41:09;;;;;;;;;;;;;;;;;;5064802;28;46746;-77
2022/09/14 13:43:35;;;;;;;;;;;;;;;;;;5059155;28;45532;-77
2022/09/14 13:46:02;;;;;;;;;;;;;;;;;;5062194;28;47612;-78
2022/09/14 13:48:28;;;;;;;;;;;;;;;;;;5043466;28;47204;-77
2022/09/14 13:50:54;;;;;;;;;;;;;;;;;;5046872;28;45138;-77
2022/09/14 13:53:20;;;;;;;;;;;;;;;;;;5064178;28;46676;-78
2022/09/14 13:55:47;;;;;;;;;;;;;;;;;;5040275;28;48419;-77
2022/09/14 13:58:13;;;;;;;;;;;;;;;;;;5045302;28;44661;-78
2022/09/14 14:00:39;;;;;;;;;;;;;;;;;;5048045;28;46667;-78
2022/09/14 14:03:06;;;;;;;;;;;;;;;;;;5040536;28;34829;-78
2022/09/14 14:05:32;;;;;;;;;;;;;;;;;;5070086;28;45864;-78
2022/09/14 14:07:58;;;;;;;;;;;;;;;;;;5065840;28;48353;-77
2022/09/14 14:10:24;;;;;;;;;;;;;;;;;;5047939;28;44574;-77
2022/09/14 14:12:51;;;;;;;;;;;;;;;;;;5068838;28;45691;-77
2022/09/14 14:15:17;;;;;;;;;;;;;;;;;;5065101;28;48539;-78
2022/09/14 14:17:43;;;;;;;;;;;;;;;;;;5052211;28;43960;-77
2022/09/14 14:20:09;;;;;;;;;;;;;;;;;;5045421;28;47866;-77
2022/09/14 14:22:37;;;;;;;;;;;;;;;;;;5051263;28;48304;-77
2022/09/14 14:25:03;;;;;;;;;;;;;;;;;;5063225;28;46617;-77
2022/09/14 14:27:47;;;;;;;;;;;;;;;;;;5044881;28;38556;-78
2022/09/14 14:30:13;;;;;;;;;;;;;;;;;;5063516;28;43473;-77
2022/09/14 14:32:39;;;;;;;;;;;;;;;;;;5062625;28;45685;-78
2022/09/14 14:35:05;;;;;;;;;;;;;;;;;;5064674;28;45399;-78
2022/09/14 14:37:32;;;;;;;;;;;;;;;;;;5052207;28;45974;-77
2022/09/14 14:39:58;;;;;;;;;;;;;;;;;;5045422;28;46649;-77
2022/09/14 14:42:24;;;;;;;;;;;;;;;;;;5069291;28;46894;-78
2022/09/14 14:44:50;;;;;;;;;;;;;;;;;;5062671;28;42644;-78
2022/09/14 14:47:16;;;;;;;;;;;;;;;;;;5044427;28;46920;-77
2022/09/14 14:49:43;;;;;;;;;;;;;;;;;;5064374;28;43937;-77
2022/09/14 14:52:09;;;;;;;;;;;;;;;;;;5058101;28;46522;-77
2022/09/14 14:54:35;;;;;;;;;;;;;;;;;;5067311;28;48455;-77
2022/09/14 14:57:01;;;;;;;;;;;;;;;;;;5049145;28;45024;-77
2022/09/14 14:59:28;;;;;;;;;;;;;;;;;;5049544;28;46173;-77
2022/09/14 15:01:54;;;;;;;;;;;;;;;;;;5048985;28;47282;-78
2022/09/14 15:04:20;;;;;;;;;;;;;;;;;;5063437;28;43898;-77
2022/09/14 15:06:46;;;;;;;;;;;;;;;;;;5063184;28;46409;-77
2022/09/14 15:09:13;;;;;;;;;;;;;;;;;;5044990;28;45150;-78
2022/09/14 15:11:42;;;;;;;;;;;;;;;;;;5046387;28;46675;-78
2022/09/14 15:14:08;;;;;;;;;;;;;;;;;;5042690;28;45473;-77
2022/09/14 15:16:34;;;;;;;;;;;;;;;;;;5046861;28;45250;-78
2022/09/14 15:19:01;;;;;;;;;;;;;;;;;;5063808;28;46395;-78
2022/09/14 15:21:27;;;;;;;;;;;;;;;;;;5047220;28;45323;-78
2022/09/14 15:23:53;;;;;;;;;;;;;;;;;;5061169;28;42318;-78
2022/09/14 15:26:19;;;;;;;;;;;;;;;;;;5058743;28;46843;-77
2022/09/14 15:28:47;;;;;;;;;;;;;;;;;;5065944;28;45766;-78
2022/09/14 15:31:13;;;;;;;;;;;;;;;;;;5063952;28;46756;-78
2022/09/14 15:33:39;;;;;;;;;;;;;;;;;;5045596;28;46872;-78
2022/09/14 15:36:06;;;;;;;;;;;;;;;;;;5048623;28;42855;-77
2022/09/14 15:38:32;;;;;;;;;;;;;;;;;;5067256;28;49115;-78
2022/09/14 15:40:58;;;;;;;;;;;;;;;;;;5050200;28;48409;-77
2022/09/14 15:43:25;;;;;;;;;;;;;;;;;;5049324;28;44988;-78
2022/09/14 15:45:51;;;;;;;;;;;;;;;;;;5053058;28;47460;-78
2022/09/14 15:48:17;;;;;;;;;;;;;;;;;;5050363;28;48072;-77
2022/09/14 15:50:43;;;;;;;;;;;;;;;;;;5052692;28;44642;-77
2022/09/14 15:53:09;;;;;;;;;;;;;;;;;;5067014;28;47286;-76
2022/09/14 15:55:36;;;;;;;;;;;;;;;;;;5049226;28;47039;-77
2022/09/14 15:58:02;;;;;;;;;;;;;;;;;;5050162;28;45735;-77
2022/09/14 16:00:28;;;;;;;;;;;;;;;;;;5061960;28;48374;-77
2022/09/14 16:02:54;;;;;;;;;;;;;;;;;;5048007;28;44488;-77
2022/09/14 16:05:20;;;;;;;;;;;;;;;;;;5039375;28;45338;-77
2022/09/14 16:07:47;;;;;;;;;;;;;;;;;;5046272;28;47293;-77
2022/09/14 16:10:13;;;;;;;;;;;;;;;;;;5064640;28;43902;-77
2022/09/14 16:12:39;;;;;;;;;;;;;;;;;;5062594;28;48337;-77
2022/09/14 16:15:06;;;;;;;;;;;;;;;;;;5062646;28;45393;-77
2022/09/14 16:17:32;;;;;;;;;;;;;;;;;;5065420;28;45828;-77
2022/09/14 16:19:58;;;;;;;;;;;;;;;;;;5063614;28;48427;-77
2022/09/14 16:22:26;;;;;;;;;;;;;;;;;;5063205;28;44051;-77
2022/09/14 16:24:52;;;;;;;;;;;;;;;;;;5063137;28;42725;-76
2022/09/14 16:27:18;;;;;;;;;;;;;;;;;;5046522;28;48823;-76
2022/09/14 16:29:44;;;;;;;;;;;;;;;;;;5044215;28;41221;-77
2022/09/14 16:32:11;;;;;;;;;;;;;;;;;;5048207;28;48429;-77
2022/09/14 16:34:37;;;;;;;;;;;;;;;;;;5064334;28;42306;-77
2022/09/14 16:37:03;;;;;;;;;;;;;;;;;;5044464;28;45492;-77
2022/09/14 16:39:30;;;;;;;;;;;;;;;;;;5066118;28;46713;-76
2022/09/14 16:41:57;;;;;;;;;;;;;;;;;;5049103;28;42056;-77
2022/09/14 16:44:23;;;;;;;;;;;;;;;;;;5047481;28;47521;-77
2022/09/14 16:46:49;;;;;;;;;;;;;;;;;;5049909;28;48251;-76
2022/09/14 16:49:16;;;;;;;;;;;;;;;;;;5048276;28;42714;-77
2022/09/14 16:51:42;;;;;;;;;;;;;;;;;;5031818;28;44864;-78
2022/09/14 16:54:08;;;;;;;;;;;;;;;;;;5051946;28;45035;-77
2022/09/14 16:56:34;;;;;;;;;;;;;;;;;;5054703;28;46065;-78
2022/09/14 16:59:01;;;;;;;;;;;;;;;;;;5056031;28;46505;-78
2022/09/14 17:01:27;;;;;;;;;;;;;;;;;;5055500;28;43764;-78
2022/09/14 17:03:53;;;;;;;;;;;;;;;;;;5055805;28;45248;-77
2022/09/14 17:06:20;;;;;;;;;;;;;;;;;;5052856;28;45431;-78
2022/09/14 17:08:46;;;;;;;;;;;;;;;;;;5064697;28;41577;-77
2022/09/14 17:11:12;;;;;;;;;;;;;;;;;;5055568;28;46299;-77